createdAt,value
2018-05-07T19:47:54.500Z,99761.91
2018-05-07T19:50:22.111Z,99765.27
2018-05-07T19:52:50.184Z,99767.16
2018-05-07T19:55:17.739Z,99764.15
2018-05-07T19:57:45.273Z,99770.38
2018-05-07T20:00:12.803Z,99768.66
2018-05-07T20:02:40.395Z,99775.80
2018-05-07T20:05:07.935Z,99773.70
2018-05-07T20:07:35.534Z,99774.95
2018-05-07T20:10:03.076Z,99771.41
2018-05-07T20:12:30.667Z,99773.18
2018-05-07T20:14:58.224Z,99771.91
2018-05-07T20:17:25.836Z,99771.44
2018-05-07T20:19:53.414Z,99770.50
2018-05-07T20:22:20.960Z,99788.59
2018-05-07T20:24:48.504Z,99777.47
2018-05-07T20:27:16.258Z,99779.66
2018-05-07T20:29:44.307Z,99777.34
2018-05-07T20:32:12.444Z,99774.69
2018-05-07T20:34:42.969Z,99770.23
2018-05-07T20:37:11.064Z,99774.58
2018-05-07T20:39:41.987Z,99778.44
2018-05-07T20:42:10.512Z,99775.16
2018-05-07T20:44:39.414Z,99773.25
2018-05-07T20:47:08.108Z,99776.22
2018-05-07T20:49:36.405Z,99779.77
2018-05-07T20:52:05.389Z,99772.94
2018-05-07T20:54:33.620Z,99776.33
2018-05-07T20:57:04.505Z,99774.87
2018-05-07T20:59:34.145Z,99773.88
2018-05-07T21:02:04.240Z,99774.13
2018-05-07T21:04:32.160Z,99770.84
2018-05-07T21:07:00.272Z,99776.78
2018-05-07T21:09:29.168Z,99774.34
2018-05-07T21:11:57.149Z,99776.00
2018-05-07T21:14:25.123Z,99772.72
2018-05-07T21:16:54.142Z,99767.64
2018-05-07T21:19:22.209Z,99767.02
2018-05-07T21:21:50.244Z,99765.55
2018-05-07T21:24:19.829Z,99775.06
2018-05-07T21:26:48.007Z,99772.19
2018-05-07T21:29:17.115Z,99770.65
2018-05-07T21:31:44.772Z,99770.83
2018-05-07T21:34:12.512Z,99773.14
2018-05-07T21:36:40.114Z,99767.08
2018-05-07T21:39:07.656Z,99771.22
2018-05-07T21:41:35.244Z,99767.67
2018-05-07T21:44:02.824Z,99766.48
2018-05-07T21:46:30.364Z,99770.52
2018-05-07T21:48:57.979Z,99762.59
2018-05-07T21:51:25.512Z,99763.89
2018-05-07T21:53:53.090Z,99765.75
2018-05-07T21:56:20.629Z,99760.63
2018-05-07T21:58:48.182Z,99759.20
2018-05-07T22:01:15.739Z,99761.68
2018-05-07T22:03:43.511Z,99760.70
2018-05-07T22:06:11.100Z,99761.70
2018-05-07T22:08:38.689Z,99762.52
2018-05-07T22:11:06.215Z,99766.78
2018-05-07T22:13:33.822Z,99758.45
2018-05-07T22:16:02.195Z,99767.20
2018-05-07T22:18:29.769Z,99763.63
2018-05-07T22:20:57.367Z,99779.02
2018-05-07T22:23:24.932Z,99752.91
2018-05-07T22:25:52.493Z,99758.96
2018-05-07T22:28:20.152Z,99762.09
2018-05-07T22:30:47.689Z,99759.80
2018-05-07T22:33:15.230Z,99765.31
2018-05-07T22:35:42.773Z,99755.22
2018-05-07T22:38:10.369Z,99760.13
2018-05-07T22:40:37.928Z,99754.83
2018-05-07T22:43:05.472Z,99757.71
2018-05-07T22:45:33.082Z,99753.86
2018-05-07T22:48:00.671Z,99759.89
2018-05-07T22:50:28.218Z,99755.97
2018-05-07T22:52:55.874Z,99752.19
2018-05-07T22:55:23.420Z,99751.45
2018-05-07T22:57:51.007Z,99749.14
2018-05-07T23:00:18.572Z,99749.14
2018-05-07T23:02:46.946Z,99750.23
2018-05-07T23:05:14.457Z,99740.55
2018-05-07T23:07:42.028Z,99749.10
2018-05-07T23:10:09.566Z,99743.89
2018-05-07T23:12:37.088Z,99739.12
2018-05-07T23:15:04.670Z,99743.57
2018-05-07T23:17:32.212Z,99732.67
2018-05-07T23:19:59.771Z,99737.13
2018-05-07T23:22:27.316Z,99742.66
2018-05-07T23:24:55.216Z,99733.55
2018-05-07T23:27:22.785Z,99735.05
2018-05-07T23:29:50.345Z,99729.83
2018-05-07T23:32:17.881Z,99727.34
2018-05-07T23:34:45.492Z,99729.66
2018-05-07T23:37:13.025Z,99730.80
2018-05-07T23:39:40.578Z,99731.88
2018-05-07T23:42:08.108Z,99727.74
2018-05-07T23:44:35.680Z,99726.20
2018-05-07T23:47:03.242Z,99721.08
2018-05-07T23:49:31.098Z,99718.13
2018-05-07T23:51:58.688Z,99717.46
2018-05-07T23:54:26.285Z,99715.00
2018-05-07T23:56:53.843Z,99714.39
2018-05-07T23:59:21.403Z,99710.64
